sensor_id;sensor_type;location;lat;lon;timestamp;temperature;humidity
52073;DHT22;38074;51.232;6.826;2022-08-01T00:04:11;26.30;55.60
52073;DHT22;38074;51.232;6.826;2022-08-01T00:11:27;26.30;55.60
52073;DHT22;38074;51.232;6.826;2022-08-01T00:18:42;26.30;55.80
52073;DHT22;38074;51.232;6.826;2022-08-01T00:25:58;26.30;55.50
52073;DHT22;38074;51.232;6.826;2022-08-01T00:33:13;26.30;55.60
52073;DHT22;38074;51.232;6.826;2022-08-01T00:40:29;26.30;55.50
52073;DHT22;38074;51.232;6.826;2022-08-01T00:47:45;26.30;55.70
52073;DHT22;38074;51.232;6.826;2022-08-01T00:55:00;26.30;55.80
52073;DHT22;38074;51.232;6.826;2022-08-01T01:02:16;26.30;55.70
52073;DHT22;38074;51.232;6.826;2022-08-01T01:09:39;26.30;55.80
52073;DHT22;38074;51.232;6.826;2022-08-01T01:16:58;26.30;55.30
52073;DHT22;38074;51.232;6.826;2022-08-01T01:24:37;26.30;55.50
52073;DHT22;38074;51.232;6.826;2022-08-01T01:32:04;26.30;55.40
52073;DHT22;38074;51.232;6.826;2022-08-01T01:39:21;26.30;55.50
52073;DHT22;38074;51.232;6.826;2022-08-01T01:46:40;26.30;55.40
52073;DHT22;38074;51.232;6.826;2022-08-01T01:53:56;26.30;55.50
52073;DHT22;38074;51.232;6.826;2022-08-01T02:01:12;26.30;55.10
52073;DHT22;38074;51.232;6.826;2022-08-01T02:08:29;26.30;55.50
52073;DHT22;38074;51.232;6.826;2022-08-01T02:15:46;26.30;55.50
52073;DHT22;38074;51.232;6.826;2022-08-01T02:23:07;26.30;55.50
52073;DHT22;38074;51.232;6.826;2022-08-01T02:30:24;26.30;55.30
52073;DHT22;38074;51.232;6.826;2022-08-01T02:37:41;26.30;55.50
52073;DHT22;38074;51.232;6.826;2022-08-01T02:44:58;26.30;55.50
52073;DHT22;38074;51.232;6.826;2022-08-01T02:52:16;26.30;55.40
52073;DHT22;38074;51.232;6.826;2022-08-01T02:59:33;26.30;55.60
52073;DHT22;38074;51.232;6.826;2022-08-01T03:06:50;26.30;55.60
52073;DHT22;38074;51.232;6.826;2022-08-01T03:14:08;26.30;55.50
52073;DHT22;38074;51.232;6.826;2022-08-01T03:21:25;26.30;55.40
52073;DHT22;38074;51.232;6.826;2022-08-01T03:28:44;26.30;55.50
52073;DHT22;38074;51.232;6.826;2022-08-01T03:36:02;26.30;55.50
52073;DHT22;38074;51.232;6.826;2022-08-01T03:43:36;26.30;55.50
52073;DHT22;38074;51.232;6.826;2022-08-01T03:50:52;26.30;55.20
52073;DHT22;38074;51.232;6.826;2022-08-01T03:58:09;26.30;55.50
52073;DHT22;38074;51.232;6.826;2022-08-01T04:05:25;26.30;55.30
52073;DHT22;38074;51.232;6.826;2022-08-01T04:12:41;26.30;55.40
52073;DHT22;38074;51.232;6.826;2022-08-01T04:19:56;26.30;55.40
52073;DHT22;38074;51.232;6.826;2022-08-01T04:27:14;26.30;55.50
52073;DHT22;38074;51.232;6.826;2022-08-01T04:34:33;26.30;55.30
52073;DHT22;38074;51.232;6.826;2022-08-01T04:41:49;26.30;55.40
52073;DHT22;38074;51.232;6.826;2022-08-01T04:49:09;26.30;55.20
52073;DHT22;38074;51.232;6.826;2022-08-01T04:56:26;26.30;55.40
52073;DHT22;38074;51.232;6.826;2022-08-01T05:03:42;26.30;55.60
52073;DHT22;38074;51.232;6.826;2022-08-01T05:10:58;26.30;55.50
52073;DHT22;38074;51.232;6.826;2022-08-01T05:18:13;26.30;55.50
52073;DHT22;38074;51.232;6.826;2022-08-01T05:25:29;26.30;55.70
52073;DHT22;38074;51.232;6.826;2022-08-01T05:32:44;26.30;55.60
52073;DHT22;38074;51.232;6.826;2022-08-01T05:40:00;26.30;55.60
52073;DHT22;38074;51.232;6.826;2022-08-01T05:47:17;26.30;55.60
52073;DHT22;38074;51.232;6.826;2022-08-01T05:54:32;26.30;55.60
52073;DHT22;38074;51.232;6.826;2022-08-01T06:01:48;26.30;55.60
52073;DHT22;38074;51.232;6.826;2022-08-01T06:09:03;26.30;55.80
52073;DHT22;38074;51.232;6.826;2022-08-01T06:16:19;26.30;55.70
52073;DHT22;38074;51.232;6.826;2022-08-01T06:23:34;26.30;56.30
52073;DHT22;38074;51.232;6.826;2022-08-01T06:30:50;26.30;55.70
52073;DHT22;38074;51.232;6.826;2022-08-01T06:38:05;26.30;55.70
52073;DHT22;38074;51.232;6.826;2022-08-01T06:45:21;26.30;55.80
52073;DHT22;38074;51.232;6.826;2022-08-01T06:52:38;26.30;55.70
52073;DHT22;38074;51.232;6.826;2022-08-01T06:59:54;26.30;55.80
52073;DHT22;38074;51.232;6.826;2022-08-01T07:07:09;26.30;55.70
52073;DHT22;38074;51.232;6.826;2022-08-01T07:14:25;26.30;55.70
52073;DHT22;38074;51.232;6.826;2022-08-01T07:21:40;26.30;55.70
52073;DHT22;38074;51.232;6.826;2022-08-01T07:28:56;26.30;55.70
52073;DHT22;38074;51.232;6.826;2022-08-01T07:36:12;26.30;55.70
52073;DHT22;38074;51.232;6.826;2022-08-01T07:43:28;26.30;55.60
52073;DHT22;38074;51.232;6.826;2022-08-01T07:50:43;26.30;55.50
52073;DHT22;38074;51.232;6.826;2022-08-01T07:57:59;26.30;55.60
52073;DHT22;38074;51.232;6.826;2022-08-01T08:05:14;26.30;55.60
52073;DHT22;38074;51.232;6.826;2022-08-01T08:12:30;26.30;55.60
52073;DHT22;38074;51.232;6.826;2022-08-01T08:19:45;26.30;55.40
52073;DHT22;38074;51.232;6.826;2022-08-01T08:27:02;26.30;55.50
52073;DHT22;38074;51.232;6.826;2022-08-01T08:34:17;26.30;55.50
52073;DHT22;38074;51.232;6.826;2022-08-01T08:41:34;26.30;55.40
52073;DHT22;38074;51.232;6.826;2022-08-01T08:48:51;26.30;55.40
52073;DHT22;38074;51.232;6.826;2022-08-01T08:56:08;26.30;55.40
52073;DHT22;38074;51.232;6.826;2022-08-01T09:03:23;26.30;55.30
52073;DHT22;38074;51.232;6.826;2022-08-01T09:10:39;26.30;55.40
52073;DHT22;38074;51.232;6.826;2022-08-01T09:17:55;26.30;55.40
52073;DHT22;38074;51.232;6.826;2022-08-01T09:25:10;26.30;55.40
52073;DHT22;38074;51.232;6.826;2022-08-01T09:32:26;26.30;55.30
52073;DHT22;38074;51.232;6.826;2022-08-01T09:39:41;26.30;55.40
52073;DHT22;38074;51.232;6.826;2022-08-01T09:46:58;26.30;55.40
52073;DHT22;38074;51.232;6.826;2022-08-01T09:54:31;26.30;55.40
52073;DHT22;38074;51.232;6.826;2022-08-01T10:01:48;26.30;55.30
52073;DHT22;38074;51.232;6.826;2022-08-01T10:09:04;26.30;55.40
52073;DHT22;38074;51.232;6.826;2022-08-01T10:16:20;26.30;55.40
52073;DHT22;38074;51.232;6.826;2022-08-01T10:23:37;26.30;55.30
52073;DHT22;38074;51.232;6.826;2022-08-01T10:30:54;26.30;55.30
52073;DHT22;38074;51.232;6.826;2022-08-01T10:38:10;26.30;55.20
52073;DHT22;38074;51.232;6.826;2022-08-01T10:45:25;26.30;55.20
52073;DHT22;38074;51.232;6.826;2022-08-01T10:52:42;26.30;55.10
52073;DHT22;38074;51.232;6.826;2022-08-01T10:59:59;26.30;55.10
52073;DHT22;38074;51.232;6.826;2022-08-01T11:07:17;26.30;55.00
52073;DHT22;38074;51.232;6.826;2022-08-01T11:22:13;26.30;54.70
52073;DHT22;38074;51.232;6.826;2022-08-01T11:29:28;26.30;55.40
52073;DHT22;38074;51.232;6.826;2022-08-01T11:36:44;26.30;54.70
52073;DHT22;38074;51.232;6.826;2022-08-01T11:44:19;26.30;54.60
52073;DHT22;38074;51.232;6.826;2022-08-01T11:51:35;26.30;54.50
52073;DHT22;38074;51.232;6.826;2022-08-01T11:58:58;26.30;54.40
52073;DHT22;38074;51.232;6.826;2022-08-01T12:06:27;26.30;54.30
52073;DHT22;38074;51.232;6.826;2022-08-01T12:13:42;26.30;54.20
52073;DHT22;38074;51.232;6.826;2022-08-01T12:21:02;26.30;54.20
52073;DHT22;38074;51.232;6.826;2022-08-01T12:28:19;26.30;54.10
52073;DHT22;38074;51.232;6.826;2022-08-01T12:35:36;26.30;54.10
52073;DHT22;38074;51.232;6.826;2022-08-01T12:42:55;26.30;54.10
52073;DHT22;38074;51.232;6.826;2022-08-01T12:50:17;26.30;54.10
52073;DHT22;38074;51.232;6.826;2022-08-01T12:57:34;26.30;54.00
52073;DHT22;38074;51.232;6.826;2022-08-01T13:04:51;26.30;53.90
52073;DHT22;38074;51.232;6.826;2022-08-01T13:12:10;26.30;53.80
52073;DHT22;38074;51.232;6.826;2022-08-01T13:19:44;26.30;53.80
52073;DHT22;38074;51.232;6.826;2022-08-01T13:27:01;26.30;53.70
52073;DHT22;38074;51.232;6.826;2022-08-01T13:34:30;26.30;53.70
52073;DHT22;38074;51.232;6.826;2022-08-01T13:41:46;26.30;53.60
52073;DHT22;38074;51.232;6.826;2022-08-01T13:49:02;26.30;53.60
52073;DHT22;38074;51.232;6.826;2022-08-01T13:56:18;26.30;53.50
52073;DHT22;38074;51.232;6.826;2022-08-01T14:03:33;26.30;53.50
52073;DHT22;38074;51.232;6.826;2022-08-01T14:10:49;26.30;53.50
52073;DHT22;38074;51.232;6.826;2022-08-01T14:18:05;26.30;53.50
52073;DHT22;38074;51.232;6.826;2022-08-01T14:25:21;26.30;53.50
52073;DHT22;38074;51.232;6.826;2022-08-01T14:32:36;26.30;53.30
52073;DHT22;38074;51.232;6.826;2022-08-01T14:39:52;26.30;53.40
52073;DHT22;38074;51.232;6.826;2022-08-01T14:47:08;26.30;53.40
52073;DHT22;38074;51.232;6.826;2022-08-01T14:54:23;26.30;53.40
52073;DHT22;38074;51.232;6.826;2022-08-01T15:01:39;26.30;53.40
52073;DHT22;38074;51.232;6.826;2022-08-01T15:08:54;26.30;53.40
52073;DHT22;38074;51.232;6.826;2022-08-01T15:16:10;26.40;53.40
52073;DHT22;38074;51.232;6.826;2022-08-01T15:23:26;26.30;53.40
52073;DHT22;38074;51.232;6.826;2022-08-01T15:30:41;26.30;53.50
52073;DHT22;38074;51.232;6.826;2022-08-01T15:37:57;26.30;53.50
52073;DHT22;38074;51.232;6.826;2022-08-01T15:45:13;26.30;53.50
52073;DHT22;38074;51.232;6.826;2022-08-01T15:52:33;26.40;53.50
52073;DHT22;38074;51.232;6.826;2022-08-01T15:59:48;26.30;53.50
52073;DHT22;38074;51.232;6.826;2022-08-01T16:07:04;26.30;53.50
52073;DHT22;38074;51.232;6.826;2022-08-01T16:14:20;26.40;53.50
52073;DHT22;38074;51.232;6.826;2022-08-01T16:21:35;26.30;53.40
52073;DHT22;38074;51.232;6.826;2022-08-01T16:28:51;26.40;53.50
52073;DHT22;38074;51.232;6.826;2022-08-01T16:36:07;26.40;53.40
52073;DHT22;38074;51.232;6.826;2022-08-01T16:43:23;26.30;53.40
52073;DHT22;38074;51.232;6.826;2022-08-01T16:50:39;26.40;53.40
52073;DHT22;38074;51.232;6.826;2022-08-01T16:57:54;26.30;53.40
52073;DHT22;38074;51.232;6.826;2022-08-01T17:05:11;26.40;54.10
52073;DHT22;38074;51.232;6.826;2022-08-01T17:12:27;26.30;53.20
52073;DHT22;38074;51.232;6.826;2022-08-01T17:19:43;26.30;53.40
52073;DHT22;38074;51.232;6.826;2022-08-01T17:26:58;26.30;53.20
52073;DHT22;38074;51.232;6.826;2022-08-01T17:34:14;26.40;53.20
52073;DHT22;38074;51.232;6.826;2022-08-01T17:41:29;26.30;53.80
52073;DHT22;38074;51.232;6.826;2022-08-01T17:48:45;26.30;53.00
52073;DHT22;38074;51.232;6.826;2022-08-01T17:56:01;26.30;52.90
52073;DHT22;38074;51.232;6.826;2022-08-01T18:03:19;26.30;52.80
52073;DHT22;38074;51.232;6.826;2022-08-01T18:10:35;26.30;52.80
52073;DHT22;38074;51.232;6.826;2022-08-01T18:17:50;26.30;52.80
52073;DHT22;38074;51.232;6.826;2022-08-01T18:25:06;26.30;52.60
52073;DHT22;38074;51.232;6.826;2022-08-01T18:32:22;26.30;52.60
52073;DHT22;38074;51.232;6.826;2022-08-01T18:39:38;26.30;52.50
52073;DHT22;38074;51.232;6.826;2022-08-01T18:46:54;26.30;52.40
52073;DHT22;38074;51.232;6.826;2022-08-01T18:54:10;26.30;52.30
52073;DHT22;38074;51.232;6.826;2022-08-01T19:01:26;26.30;52.30
52073;DHT22;38074;51.232;6.826;2022-08-01T19:08:41;26.30;52.30
52073;DHT22;38074;51.232;6.826;2022-08-01T19:15:58;26.30;52.20
52073;DHT22;38074;51.232;6.826;2022-08-01T19:23:14;26.30;52.10
52073;DHT22;38074;51.232;6.826;2022-08-01T19:30:50;26.30;52.10
52073;DHT22;38074;51.232;6.826;2022-08-01T19:38:06;26.30;52.00
52073;DHT22;38074;51.232;6.826;2022-08-01T19:45:22;26.30;51.90
52073;DHT22;38074;51.232;6.826;2022-08-01T19:52:38;26.30;51.40
52073;DHT22;38074;51.232;6.826;2022-08-01T19:59:55;26.30;51.00
52073;DHT22;38074;51.232;6.826;2022-08-01T20:07:13;26.30;51.00
52073;DHT22;38074;51.232;6.826;2022-08-01T20:14:29;26.20;50.70
52073;DHT22;38074;51.232;6.826;2022-08-01T20:21:47;26.20;50.90
52073;DHT22;38074;51.232;6.826;2022-08-01T20:29:03;26.10;50.70
52073;DHT22;38074;51.232;6.826;2022-08-01T20:36:19;26.10;50.80
52073;DHT22;38074;51.232;6.826;2022-08-01T20:43:34;26.10;50.70
52073;DHT22;38074;51.232;6.826;2022-08-01T20:50:51;26.10;50.90
52073;DHT22;38074;51.232;6.826;2022-08-01T20:58:33;26.10;50.90
52073;DHT22;38074;51.232;6.826;2022-08-01T21:05:55;26.10;50.90
52073;DHT22;38074;51.232;6.826;2022-08-01T21:13:19;26.10;50.90
52073;DHT22;38074;51.232;6.826;2022-08-01T21:20:41;26.10;50.90
52073;DHT22;38074;51.232;6.826;2022-08-01T21:27:59;26.10;51.00
52073;DHT22;38074;51.232;6.826;2022-08-01T21:35:16;26.10;51.00
52073;DHT22;38074;51.232;6.826;2022-08-01T21:42:35;26.10;51.00
52073;DHT22;38074;51.232;6.826;2022-08-01T21:49:51;26.10;51.00
52073;DHT22;38074;51.232;6.826;2022-08-01T21:57:14;26.10;51.10
52073;DHT22;38074;51.232;6.826;2022-08-01T22:04:41;26.10;51.20
52073;DHT22;38074;51.232;6.826;2022-08-01T22:12:03;26.10;51.30
52073;DHT22;38074;51.232;6.826;2022-08-01T22:19:20;26.10;51.40
52073;DHT22;38074;51.232;6.826;2022-08-01T22:26:36;26.10;51.40
52073;DHT22;38074;51.232;6.826;2022-08-01T22:33:52;26.10;51.40
52073;DHT22;38074;51.232;6.826;2022-08-01T22:41:14;26.10;51.50
52073;DHT22;38074;51.232;6.826;2022-08-01T22:48:44;26.10;51.50
52073;DHT22;38074;51.232;6.826;2022-08-01T22:56:07;26.10;51.60
52073;DHT22;38074;51.232;6.826;2022-08-01T23:03:26;26.10;51.80
52073;DHT22;38074;51.232;6.826;2022-08-01T23:10:44;26.10;51.80
52073;DHT22;38074;51.232;6.826;2022-08-01T23:18:01;26.10;51.80
52073;DHT22;38074;51.232;6.826;2022-08-01T23:25:18;26.10;51.80
52073;DHT22;38074;51.232;6.826;2022-08-01T23:32:34;26.10;51.90
52073;DHT22;38074;51.232;6.826;2022-08-01T23:39:50;26.10;51.90
52073;DHT22;38074;51.232;6.826;2022-08-01T23:47:07;26.10;51.80
52073;DHT22;38074;51.232;6.826;2022-08-01T23:54:22;26.10;51.80
